sensor_id;sensor_type;location;lat;lon;timestamp;P1;durP1;ratioP1;P2;durP2;ratioP2
4466;SDS011;2246;42.664;23.278;2023-06-14T00:01:45;15.00;;;9.40;;
4466;SDS011;2246;42.664;23.278;2023-06-14T00:04:11;15.32;;;10.32;;
4466;SDS011;2246;42.664;23.278;2023-06-14T00:06:37;15.50;;;10.32;;
4466;SDS011;2246;42.664;23.278;2023-06-14T00:09:04;14.32;;;9.70;;
4466;SDS011;2246;42.664;23.278;2023-06-14T00:11:33;12.23;;;8.98;;
4466;SDS011;2246;42.664;23.278;2023-06-14T00:13:59;14.30;;;9.15;;
4466;SDS011;2246;42.664;23.278;2023-06-14T00:16:25;13.07;;;9.50;;
4466;SDS011;2246;42.664;23.278;2023-06-14T00:18:51;15.27;;;9.02;;
4466;SDS011;2246;42.664;23.278;2023-06-14T00:21:17;12.20;;;8.27;;
4466;SDS011;2246;42.664;23.278;2023-06-14T00:23:44;15.63;;;8.23;;
4466;SDS011;2246;42.664;23.278;2023-06-14T00:26:10;12.80;;;8.40;;
4466;SDS011;2246;42.664;23.278;2023-06-14T00:28:36;16.88;;;7.25;;
4466;SDS011;2246;42.664;23.278;2023-06-14T00:31:02;14.63;;;8.20;;
4466;SDS011;2246;42.664;23.278;2023-06-14T00:33:28;15.68;;;6.82;;
4466;SDS011;2246;42.664;23.278;2023-06-14T00:35:54;11.45;;;7.40;;
4466;SDS011;2246;42.664;23.278;2023-06-14T00:38:20;11.13;;;7.90;;
4466;SDS011;2246;42.664;23.278;2023-06-14T00:40:46;12.48;;;7.15;;
4466;SDS011;2246;42.664;23.278;2023-06-14T00:43:12;12.27;;;7.20;;
4466;SDS011;2246;42.664;23.278;2023-06-14T00:45:38;13.15;;;6.80;;
4466;SDS011;2246;42.664;23.278;2023-06-14T00:48:04;9.85;;;7.70;;
4466;SDS011;2246;42.664;23.278;2023-06-14T00:50:32;13.82;;;7.93;;
4466;SDS011;2246;42.664;23.278;2023-06-14T00:52:59;16.80;;;8.70;;
4466;SDS011;2246;42.664;23.278;2023-06-14T00:57:51;11.70;;;7.93;;
4466;SDS011;2246;42.664;23.278;2023-06-14T01:00:17;12.77;;;8.90;;
4466;SDS011;2246;42.664;23.278;2023-06-14T01:02:44;13.35;;;9.13;;
4466;SDS011;2246;42.664;23.278;2023-06-14T01:05:10;16.42;;;9.32;;
4466;SDS011;2246;42.664;23.278;2023-06-14T01:07:46;16.10;;;9.55;;
4466;SDS011;2246;42.664;23.278;2023-06-14T01:12:46;17.45;;;8.88;;
4466;SDS011;2246;42.664;23.278;2023-06-14T01:15:14;12.13;;;9.18;;
4466;SDS011;2246;42.664;23.278;2023-06-14T01:17:41;15.18;;;8.82;;
4466;SDS011;2246;42.664;23.278;2023-06-14T01:20:10;14.93;;;8.93;;
4466;SDS011;2246;42.664;23.278;2023-06-14T01:22:45;18.58;;;8.45;;
4466;SDS011;2246;42.664;23.278;2023-06-14T01:25:11;16.50;;;8.45;;
4466;SDS011;2246;42.664;23.278;2023-06-14T01:27:37;12.55;;;8.15;;
4466;SDS011;2246;42.664;23.278;2023-06-14T01:30:03;12.35;;;7.90;;
4466;SDS011;2246;42.664;23.278;2023-06-14T01:32:30;14.37;;;7.60;;
4466;SDS011;2246;42.664;23.278;2023-06-14T01:34:56;16.23;;;7.75;;
4466;SDS011;2246;42.664;23.278;2023-06-14T01:37:22;9.73;;;6.70;;
4466;SDS011;2246;42.664;23.278;2023-06-14T01:39:48;10.05;;;6.97;;
4466;SDS011;2246;42.664;23.278;2023-06-14T01:42:15;11.80;;;8.25;;
4466;SDS011;2246;42.664;23.278;2023-06-14T01:44:42;11.90;;;8.15;;
4466;SDS011;2246;42.664;23.278;2023-06-14T01:47:08;13.57;;;8.15;;
4466;SDS011;2246;42.664;23.278;2023-06-14T01:49:34;17.38;;;7.53;;
4466;SDS011;2246;42.664;23.278;2023-06-14T01:52:00;10.38;;;6.97;;
4466;SDS011;2246;42.664;23.278;2023-06-14T01:54:26;8.57;;;6.45;;
4466;SDS011;2246;42.664;23.278;2023-06-14T01:56:54;9.18;;;5.80;;
4466;SDS011;2246;42.664;23.278;2023-06-14T01:59:21;9.13;;;5.90;;
4466;SDS011;2246;42.664;23.278;2023-06-14T02:01:47;6.20;;;5.20;;
4466;SDS011;2246;42.664;23.278;2023-06-14T02:04:13;8.05;;;5.07;;
4466;SDS011;2246;42.664;23.278;2023-06-14T02:06:39;8.45;;;5.55;;
4466;SDS011;2246;42.664;23.278;2023-06-14T02:09:05;7.22;;;4.90;;
4466;SDS011;2246;42.664;23.278;2023-06-14T02:11:31;10.57;;;5.30;;
4466;SDS011;2246;42.664;23.278;2023-06-14T02:13:57;10.00;;;5.72;;
4466;SDS011;2246;42.664;23.278;2023-06-14T02:16:24;6.55;;;5.13;;
4466;SDS011;2246;42.664;23.278;2023-06-14T02:18:52;8.52;;;5.72;;
4466;SDS011;2246;42.664;23.278;2023-06-14T02:21:19;10.32;;;6.22;;
4466;SDS011;2246;42.664;23.278;2023-06-14T02:23:45;13.75;;;6.53;;
4466;SDS011;2246;42.664;23.278;2023-06-14T02:26:11;7.53;;;5.38;;
4466;SDS011;2246;42.664;23.278;2023-06-14T02:28:37;9.18;;;6.40;;
4466;SDS011;2246;42.664;23.278;2023-06-14T02:31:03;7.68;;;5.85;;
4466;SDS011;2246;42.664;23.278;2023-06-14T02:33:29;10.27;;;6.03;;
4466;SDS011;2246;42.664;23.278;2023-06-14T02:35:55;8.25;;;5.85;;
4466;SDS011;2246;42.664;23.278;2023-06-14T02:38:21;7.25;;;5.70;;
4466;SDS011;2246;42.664;23.278;2023-06-14T02:40:47;8.57;;;6.47;;
4466;SDS011;2246;42.664;23.278;2023-06-14T02:43:13;15.20;;;6.00;;
4466;SDS011;2246;42.664;23.278;2023-06-14T02:45:40;11.27;;;6.50;;
4466;SDS011;2246;42.664;23.278;2023-06-14T02:48:06;11.32;;;4.72;;
4466;SDS011;2246;42.664;23.278;2023-06-14T02:50:32;8.10;;;5.32;;
4466;SDS011;2246;42.664;23.278;2023-06-14T02:52:58;7.30;;;5.38;;
4466;SDS011;2246;42.664;23.278;2023-06-14T02:55:24;7.85;;;5.18;;
4466;SDS011;2246;42.664;23.278;2023-06-14T02:57:51;5.40;;;4.72;;
4466;SDS011;2246;42.664;23.278;2023-06-14T03:00:18;5.93;;;4.87;;
4466;SDS011;2246;42.664;23.278;2023-06-14T03:02:44;8.15;;;5.05;;
4466;SDS011;2246;42.664;23.278;2023-06-14T03:05:10;5.57;;;4.65;;
4466;SDS011;2246;42.664;23.278;2023-06-14T03:07:37;5.90;;;4.60;;
4466;SDS011;2246;42.664;23.278;2023-06-14T03:10:07;11.10;;;4.75;;
4466;SDS011;2246;42.664;23.278;2023-06-14T03:12:34;6.05;;;4.72;;
4466;SDS011;2246;42.664;23.278;2023-06-14T03:15:00;5.38;;;4.75;;
4466;SDS011;2246;42.664;23.278;2023-06-14T03:17:26;6.22;;;4.93;;
4466;SDS011;2246;42.664;23.278;2023-06-14T03:19:55;10.00;;;6.15;;
4466;SDS011;2246;42.664;23.278;2023-06-14T03:22:21;10.88;;;6.07;;
4466;SDS011;2246;42.664;23.278;2023-06-14T03:24:47;9.90;;;6.22;;
4466;SDS011;2246;42.664;23.278;2023-06-14T03:27:13;7.30;;;5.20;;
4466;SDS011;2246;42.664;23.278;2023-06-14T03:29:39;12.55;;;5.40;;
4466;SDS011;2246;42.664;23.278;2023-06-14T03:32:05;5.07;;;4.57;;
4466;SDS011;2246;42.664;23.278;2023-06-14T03:34:31;8.15;;;4.82;;
4466;SDS011;2246;42.664;23.278;2023-06-14T03:36:57;6.18;;;4.80;;
4466;SDS011;2246;42.664;23.278;2023-06-14T03:39:23;7.22;;;5.18;;
4466;SDS011;2246;42.664;23.278;2023-06-14T03:41:49;6.75;;;5.10;;
4466;SDS011;2246;42.664;23.278;2023-06-14T03:44:16;7.72;;;5.30;;
4466;SDS011;2246;42.664;23.278;2023-06-14T03:46:43;7.28;;;5.63;;
4466;SDS011;2246;42.664;23.278;2023-06-14T03:49:10;7.10;;;5.38;;
4466;SDS011;2246;42.664;23.278;2023-06-14T03:51:36;6.68;;;5.18;;
4466;SDS011;2246;42.664;23.278;2023-06-14T03:54:02;8.15;;;4.97;;
4466;SDS011;2246;42.664;23.278;2023-06-14T03:56:28;7.05;;;4.90;;
4466;SDS011;2246;42.664;23.278;2023-06-14T03:58:54;8.25;;;5.15;;
4466;SDS011;2246;42.664;23.278;2023-06-14T04:01:21;9.43;;;5.35;;
4466;SDS011;2246;42.664;23.278;2023-06-14T04:03:52;9.38;;;5.47;;
4466;SDS011;2246;42.664;23.278;2023-06-14T04:06:18;6.80;;;5.32;;
4466;SDS011;2246;42.664;23.278;2023-06-14T04:08:44;7.13;;;5.38;;
4466;SDS011;2246;42.664;23.278;2023-06-14T04:11:11;7.55;;;5.43;;
4466;SDS011;2246;42.664;23.278;2023-06-14T04:13:37;7.72;;;5.63;;
4466;SDS011;2246;42.664;23.278;2023-06-14T04:16:04;9.90;;;5.80;;
4466;SDS011;2246;42.664;23.278;2023-06-14T04:18:30;9.15;;;5.28;;
4466;SDS011;2246;42.664;23.278;2023-06-14T04:20:56;12.43;;;5.75;;
4466;SDS011;2246;42.664;23.278;2023-06-14T04:23:22;14.52;;;6.13;;
4466;SDS011;2246;42.664;23.278;2023-06-14T04:25:48;10.82;;;7.15;;
4466;SDS011;2246;42.664;23.278;2023-06-14T04:28:15;11.70;;;7.50;;
4466;SDS011;2246;42.664;23.278;2023-06-14T04:30:42;11.85;;;7.28;;
4466;SDS011;2246;42.664;23.278;2023-06-14T04:33:08;11.43;;;7.18;;
4466;SDS011;2246;42.664;23.278;2023-06-14T04:35:34;10.00;;;7.05;;
4466;SDS011;2246;42.664;23.278;2023-06-14T04:38:02;16.75;;;6.88;;
4466;SDS011;2246;42.664;23.278;2023-06-14T04:42:55;15.90;;;9.38;;
4466;SDS011;2246;42.664;23.278;2023-06-14T04:45:22;13.23;;;9.82;;
4466;SDS011;2246;42.664;23.278;2023-06-14T04:47:49;12.70;;;7.75;;
4466;SDS011;2246;42.664;23.278;2023-06-14T04:50:16;17.90;;;7.40;;
4466;SDS011;2246;42.664;23.278;2023-06-14T04:52:43;10.52;;;7.35;;
4466;SDS011;2246;42.664;23.278;2023-06-14T04:55:09;11.50;;;8.32;;
4466;SDS011;2246;42.664;23.278;2023-06-14T04:57:35;10.23;;;7.88;;
4466;SDS011;2246;42.664;23.278;2023-06-14T05:00:03;10.27;;;7.75;;
4466;SDS011;2246;42.664;23.278;2023-06-14T05:02:30;12.88;;;9.93;;
4466;SDS011;2246;42.664;23.278;2023-06-14T05:04:56;11.70;;;8.27;;
4466;SDS011;2246;42.664;23.278;2023-06-14T05:07:22;11.93;;;8.10;;
4466;SDS011;2246;42.664;23.278;2023-06-14T05:09:49;11.80;;;8.70;;
4466;SDS011;2246;42.664;23.278;2023-06-14T05:12:15;13.38;;;7.47;;
4466;SDS011;2246;42.664;23.278;2023-06-14T05:14:43;14.40;;;6.63;;
4466;SDS011;2246;42.664;23.278;2023-06-14T05:17:09;12.68;;;7.22;;
4466;SDS011;2246;42.664;23.278;2023-06-14T05:19:35;9.95;;;7.72;;
4466;SDS011;2246;42.664;23.278;2023-06-14T05:22:01;11.68;;;6.70;;
4466;SDS011;2246;42.664;23.278;2023-06-14T05:24:28;12.60;;;9.20;;
4466;SDS011;2246;42.664;23.278;2023-06-14T05:26:57;14.13;;;6.75;;
4466;SDS011;2246;42.664;23.278;2023-06-14T05:29:24;11.87;;;6.90;;
4466;SDS011;2246;42.664;23.278;2023-06-14T05:31:50;14.80;;;7.68;;
4466;SDS011;2246;42.664;23.278;2023-06-14T05:34:17;12.30;;;7.60;;
4466;SDS011;2246;42.664;23.278;2023-06-14T05:36:43;13.57;;;7.55;;
4466;SDS011;2246;42.664;23.278;2023-06-14T05:39:09;10.10;;;7.25;;
4466;SDS011;2246;42.664;23.278;2023-06-14T05:41:35;11.10;;;7.80;;
4466;SDS011;2246;42.664;23.278;2023-06-14T05:44:01;17.38;;;8.55;;
4466;SDS011;2246;42.664;23.278;2023-06-14T05:46:27;12.48;;;8.65;;
4466;SDS011;2246;42.664;23.278;2023-06-14T05:48:53;13.25;;;8.77;;
4466;SDS011;2246;42.664;23.278;2023-06-14T05:51:20;14.85;;;9.00;;
4466;SDS011;2246;42.664;23.278;2023-06-14T05:53:46;15.40;;;9.48;;
4466;SDS011;2246;42.664;23.278;2023-06-14T05:56:12;13.80;;;8.90;;
4466;SDS011;2246;42.664;23.278;2023-06-14T05:58:39;12.43;;;9.63;;
4466;SDS011;2246;42.664;23.278;2023-06-14T06:01:05;15.82;;;9.40;;
4466;SDS011;2246;42.664;23.278;2023-06-14T06:03:31;17.00;;;10.68;;
4466;SDS011;2246;42.664;23.278;2023-06-14T06:05:57;26.17;;;15.50;;
4466;SDS011;2246;42.664;23.278;2023-06-14T06:08:23;16.63;;;11.10;;
4466;SDS011;2246;42.664;23.278;2023-06-14T06:10:49;13.48;;;10.05;;
4466;SDS011;2246;42.664;23.278;2023-06-14T06:13:15;18.38;;;10.32;;
4466;SDS011;2246;42.664;23.278;2023-06-14T06:15:41;17.67;;;11.00;;
4466;SDS011;2246;42.664;23.278;2023-06-14T06:18:07;16.33;;;11.45;;
4466;SDS011;2246;42.664;23.278;2023-06-14T06:20:33;21.73;;;10.77;;
4466;SDS011;2246;42.664;23.278;2023-06-14T06:23:00;15.02;;;9.25;;
4466;SDS011;2246;42.664;23.278;2023-06-14T06:25:26;15.68;;;9.80;;
4466;SDS011;2246;42.664;23.278;2023-06-14T06:27:53;14.15;;;9.55;;
4466;SDS011;2246;42.664;23.278;2023-06-14T06:30:19;13.77;;;9.20;;
4466;SDS011;2246;42.664;23.278;2023-06-14T06:32:46;15.90;;;8.65;;
4466;SDS011;2246;42.664;23.278;2023-06-14T06:35:12;14.77;;;8.88;;
4466;SDS011;2246;42.664;23.278;2023-06-14T06:37:39;11.93;;;8.45;;
4466;SDS011;2246;42.664;23.278;2023-06-14T06:40:05;12.07;;;8.65;;
4466;SDS011;2246;42.664;23.278;2023-06-14T06:42:32;34.92;;;19.73;;
4466;SDS011;2246;42.664;23.278;2023-06-14T06:44:59;21.58;;;13.30;;
4466;SDS011;2246;42.664;23.278;2023-06-14T06:47:25;22.25;;;14.30;;
4466;SDS011;2246;42.664;23.278;2023-06-14T06:49:51;36.47;;;21.27;;
4466;SDS011;2246;42.664;23.278;2023-06-14T06:52:17;13.65;;;9.55;;
4466;SDS011;2246;42.664;23.278;2023-06-14T06:54:43;29.10;;;15.98;;
4466;SDS011;2246;42.664;23.278;2023-06-14T06:57:10;17.05;;;10.02;;
4466;SDS011;2246;42.664;23.278;2023-06-14T06:59:36;18.08;;;11.77;;
4466;SDS011;2246;42.664;23.278;2023-06-14T07:02:02;14.93;;;9.52;;
4466;SDS011;2246;42.664;23.278;2023-06-14T07:04:29;12.88;;;9.73;;
4466;SDS011;2246;42.664;23.278;2023-06-14T07:06:54;16.60;;;10.30;;
4466;SDS011;2246;42.664;23.278;2023-06-14T07:09:21;18.25;;;10.07;;
4466;SDS011;2246;42.664;23.278;2023-06-14T07:11:47;17.27;;;9.98;;
4466;SDS011;2246;42.664;23.278;2023-06-14T07:14:13;14.32;;;10.13;;
4466;SDS011;2246;42.664;23.278;2023-06-14T07:16:39;13.52;;;9.07;;
4466;SDS011;2246;42.664;23.278;2023-06-14T07:19:06;15.55;;;9.05;;
4466;SDS011;2246;42.664;23.278;2023-06-14T07:21:32;18.83;;;9.23;;
4466;SDS011;2246;42.664;23.278;2023-06-14T07:23:58;15.73;;;8.73;;
4466;SDS011;2246;42.664;23.278;2023-06-14T07:26:24;13.73;;;8.95;;
4466;SDS011;2246;42.664;23.278;2023-06-14T07:28:50;20.23;;;9.50;;
4466;SDS011;2246;42.664;23.278;2023-06-14T07:31:16;18.20;;;9.85;;
4466;SDS011;2246;42.664;23.278;2023-06-14T07:33:44;13.52;;;9.75;;
4466;SDS011;2246;42.664;23.278;2023-06-14T07:36:10;25.33;;;10.55;;
4466;SDS011;2246;42.664;23.278;2023-06-14T07:38:36;17.40;;;9.93;;
4466;SDS011;2246;42.664;23.278;2023-06-14T07:41:02;13.32;;;9.73;;
4466;SDS011;2246;42.664;23.278;2023-06-14T07:43:28;11.85;;;9.27;;
4466;SDS011;2246;42.664;23.278;2023-06-14T07:45:54;12.40;;;8.68;;
4466;SDS011;2246;42.664;23.278;2023-06-14T07:48:22;20.52;;;10.70;;
4466;SDS011;2246;42.664;23.278;2023-06-14T07:50:48;13.70;;;9.48;;
4466;SDS011;2246;42.664;23.278;2023-06-14T07:53:14;16.00;;;10.02;;
4466;SDS011;2246;42.664;23.278;2023-06-14T07:55:40;13.88;;;9.70;;
4466;SDS011;2246;42.664;23.278;2023-06-14T07:58:08;16.27;;;8.98;;
4466;SDS011;2246;42.664;23.278;2023-06-14T08:00:35;17.30;;;9.52;;
4466;SDS011;2246;42.664;23.278;2023-06-14T08:03:01;11.35;;;8.18;;
4466;SDS011;2246;42.664;23.278;2023-06-14T08:05:28;14.27;;;8.73;;
4466;SDS011;2246;42.664;23.278;2023-06-14T08:07:54;13.15;;;8.32;;
4466;SDS011;2246;42.664;23.278;2023-06-14T08:10:21;10.70;;;8.35;;
4466;SDS011;2246;42.664;23.278;2023-06-14T08:12:47;11.68;;;7.38;;
4466;SDS011;2246;42.664;23.278;2023-06-14T08:17:42;10.70;;;7.50;;
4466;SDS011;2246;42.664;23.278;2023-06-14T08:20:08;10.32;;;7.30;;
4466;SDS011;2246;42.664;23.278;2023-06-14T08:22:35;10.02;;;7.80;;
4466;SDS011;2246;42.664;23.278;2023-06-14T08:25:02;19.98;;;7.95;;
4466;SDS011;2246;42.664;23.278;2023-06-14T08:27:28;10.07;;;7.13;;
4466;SDS011;2246;42.664;23.278;2023-06-14T08:29:54;10.80;;;7.38;;
4466;SDS011;2246;42.664;23.278;2023-06-14T08:32:21;10.63;;;7.93;;
4466;SDS011;2246;42.664;23.278;2023-06-14T08:34:47;12.27;;;8.13;;
4466;SDS011;2246;42.664;23.278;2023-06-14T08:37:13;13.30;;;8.40;;
4466;SDS011;2246;42.664;23.278;2023-06-14T08:39:39;11.65;;;7.55;;
4466;SDS011;2246;42.664;23.278;2023-06-14T08:42:05;11.63;;;8.18;;
4466;SDS011;2246;42.664;23.278;2023-06-14T08:44:33;10.95;;;8.05;;
4466;SDS011;2246;42.664;23.278;2023-06-14T08:46:59;13.20;;;8.73;;
4466;SDS011;2246;42.664;23.278;2023-06-14T08:49:26;17.08;;;8.48;;
4466;SDS011;2246;42.664;23.278;2023-06-14T08:51:54;19.05;;;8.43;;
4466;SDS011;2246;42.664;23.278;2023-06-14T08:54:23;12.50;;;7.72;;
4466;SDS011;2246;42.664;23.278;2023-06-14T08:56:52;16.50;;;9.05;;
4466;SDS011;2246;42.664;23.278;2023-06-14T08:59:19;11.13;;;7.50;;
4466;SDS011;2246;42.664;23.278;2023-06-14T09:01:46;10.43;;;7.30;;
4466;SDS011;2246;42.664;23.278;2023-06-14T09:04:12;10.48;;;8.45;;
4466;SDS011;2246;42.664;23.278;2023-06-14T09:06:39;12.45;;;8.25;;
4466;SDS011;2246;42.664;23.278;2023-06-14T09:09:05;10.77;;;8.68;;
4466;SDS011;2246;42.664;23.278;2023-06-14T09:11:32;23.67;;;8.90;;
4466;SDS011;2246;42.664;23.278;2023-06-14T09:13:58;12.50;;;8.30;;
4466;SDS011;2246;42.664;23.278;2023-06-14T09:16:25;16.30;;;9.77;;
4466;SDS011;2246;42.664;23.278;2023-06-14T09:18:51;15.43;;;10.20;;
4466;SDS011;2246;42.664;23.278;2023-06-14T09:21:17;13.73;;;9.85;;
4466;SDS011;2246;42.664;23.278;2023-06-14T09:23:47;19.52;;;10.30;;
4466;SDS011;2246;42.664;23.278;2023-06-14T09:26:14;14.05;;;9.38;;
4466;SDS011;2246;42.664;23.278;2023-06-14T09:28:44;18.67;;;9.63;;
4466;SDS011;2246;42.664;23.278;2023-06-14T09:31:14;18.08;;;10.35;;
4466;SDS011;2246;42.664;23.278;2023-06-14T09:33:44;17.85;;;10.23;;
4466;SDS011;2246;42.664;23.278;2023-06-14T09:36:15;16.67;;;9.63;;
4466;SDS011;2246;42.664;23.278;2023-06-14T09:38:41;12.10;;;8.90;;
4466;SDS011;2246;42.664;23.278;2023-06-14T09:41:07;13.05;;;9.30;;
4466;SDS011;2246;42.664;23.278;2023-06-14T09:43:33;12.38;;;9.80;;
4466;SDS011;2246;42.664;23.278;2023-06-14T09:46:00;18.05;;;10.07;;
4466;SDS011;2246;42.664;23.278;2023-06-14T09:48:27;16.77;;;8.43;;
4466;SDS011;2246;42.664;23.278;2023-06-14T09:50:53;17.10;;;10.05;;
4466;SDS011;2246;42.664;23.278;2023-06-14T09:53:21;12.93;;;9.30;;
4466;SDS011;2246;42.664;23.278;2023-06-14T09:58:14;12.15;;;9.93;;
4466;SDS011;2246;42.664;23.278;2023-06-14T10:03:11;12.23;;;8.27;;
4466;SDS011;2246;42.664;23.278;2023-06-14T10:05:38;13.85;;;9.35;;
4466;SDS011;2246;42.664;23.278;2023-06-14T10:08:08;14.05;;;9.38;;
4466;SDS011;2246;42.664;23.278;2023-06-14T10:10:34;14.23;;;9.32;;
4466;SDS011;2246;42.664;23.278;2023-06-14T10:13:00;14.38;;;9.95;;
4466;SDS011;2246;42.664;23.278;2023-06-14T10:15:31;14.68;;;9.05;;
4466;SDS011;2246;42.664;23.278;2023-06-14T10:18:06;19.38;;;9.88;;
4466;SDS011;2246;42.664;23.278;2023-06-14T10:20:35;17.27;;;10.20;;
4466;SDS011;2246;42.664;23.278;2023-06-14T10:26:01;14.27;;;9.93;;
4466;SDS011;2246;42.664;23.278;2023-06-14T10:28:27;14.38;;;9.98;;
4466;SDS011;2246;42.664;23.278;2023-06-14T10:31:08;13.27;;;9.48;;
4466;SDS011;2246;42.664;23.278;2023-06-14T10:33:56;13.15;;;9.50;;
4466;SDS011;2246;42.664;23.278;2023-06-14T10:36:28;18.55;;;10.05;;
4466;SDS011;2246;42.664;23.278;2023-06-14T10:39:06;20.90;;;14.05;;
4466;SDS011;2246;42.664;23.278;2023-06-14T10:41:39;13.48;;;9.75;;
4466;SDS011;2246;42.664;23.278;2023-06-14T10:46:45;18.88;;;10.77;;
4466;SDS011;2246;42.664;23.278;2023-06-14T10:49:11;17.27;;;10.55;;
4466;SDS011;2246;42.664;23.278;2023-06-14T10:51:38;14.15;;;10.43;;
4466;SDS011;2246;42.664;23.278;2023-06-14T10:54:18;13.98;;;10.25;;
4466;SDS011;2246;42.664;23.278;2023-06-14T10:56:46;18.20;;;10.13;;
4466;SDS011;2246;42.664;23.278;2023-06-14T10:59:13;17.23;;;9.18;;
4466;SDS011;2246;42.664;23.278;2023-06-14T11:04:15;14.80;;;9.10;;
4466;SDS011;2246;42.664;23.278;2023-06-14T11:11:41;16.25;;;9.90;;
4466;SDS011;2246;42.664;23.278;2023-06-14T11:14:08;10.80;;;8.73;;
4466;SDS011;2246;42.664;23.278;2023-06-14T11:16:35;13.38;;;10.20;;
4466;SDS011;2246;42.664;23.278;2023-06-14T11:19:02;13.55;;;10.45;;
4466;SDS011;2246;42.664;23.278;2023-06-14T11:21:33;14.35;;;10.25;;
4466;SDS011;2246;42.664;23.278;2023-06-14T11:24:00;17.73;;;12.55;;
4466;SDS011;2246;42.664;23.278;2023-06-14T11:26:27;23.58;;;14.15;;
4466;SDS011;2246;42.664;23.278;2023-06-14T11:28:56;12.00;;;8.70;;
4466;SDS011;2246;42.664;23.278;2023-06-14T11:31:23;10.45;;;8.43;;
4466;SDS011;2246;42.664;23.278;2023-06-14T11:33:50;14.10;;;9.38;;
4466;SDS011;2246;42.664;23.278;2023-06-14T11:36:16;14.15;;;9.05;;
4466;SDS011;2246;42.664;23.278;2023-06-14T11:38:42;18.55;;;9.98;;
4466;SDS011;2246;42.664;23.278;2023-06-14T11:41:08;18.13;;;9.35;;
4466;SDS011;2246;42.664;23.278;2023-06-14T11:43:35;11.93;;;8.45;;
4466;SDS011;2246;42.664;23.278;2023-06-14T11:46:01;13.77;;;9.38;;
4466;SDS011;2246;42.664;23.278;2023-06-14T11:51:23;16.60;;;9.10;;
4466;SDS011;2246;42.664;23.278;2023-06-14T11:53:49;21.48;;;10.25;;
4466;SDS011;2246;42.664;23.278;2023-06-14T11:56:15;11.10;;;8.23;;
4466;SDS011;2246;42.664;23.278;2023-06-14T11:58:44;11.52;;;8.00;;
4466;SDS011;2246;42.664;23.278;2023-06-14T12:01:14;12.30;;;7.93;;
4466;SDS011;2246;42.664;23.278;2023-06-14T12:03:46;11.60;;;7.88;;
4466;SDS011;2246;42.664;23.278;2023-06-14T12:06:13;14.68;;;7.80;;
4466;SDS011;2246;42.664;23.278;2023-06-14T12:08:39;11.95;;;6.55;;
4466;SDS011;2246;42.664;23.278;2023-06-14T12:11:15;10.57;;;6.82;;
4466;SDS011;2246;42.664;23.278;2023-06-14T12:13:42;14.02;;;6.80;;
4466;SDS011;2246;42.664;23.278;2023-06-14T12:16:09;10.40;;;6.93;;
4466;SDS011;2246;42.664;23.278;2023-06-14T12:18:35;8.25;;;7.25;;
4466;SDS011;2246;42.664;23.278;2023-06-14T12:21:05;10.65;;;6.63;;
4466;SDS011;2246;42.664;23.278;2023-06-14T12:23:47;10.48;;;6.65;;
4466;SDS011;2246;42.664;23.278;2023-06-14T12:26:17;8.55;;;6.85;;
4466;SDS011;2246;42.664;23.278;2023-06-14T12:28:46;9.77;;;6.80;;
4466;SDS011;2246;42.664;23.278;2023-06-14T12:31:13;10.18;;;6.38;;
4466;SDS011;2246;42.664;23.278;2023-06-14T12:33:40;7.77;;;6.37;;
4466;SDS011;2246;42.664;23.278;2023-06-14T12:36:09;7.80;;;6.28;;
4466;SDS011;2246;42.664;23.278;2023-06-14T12:38:35;11.95;;;6.18;;
4466;SDS011;2246;42.664;23.278;2023-06-14T12:41:01;7.00;;;5.97;;
4466;SDS011;2246;42.664;23.278;2023-06-14T12:43:27;7.15;;;5.50;;
4466;SDS011;2246;42.664;23.278;2023-06-14T12:45:54;7.32;;;5.80;;
4466;SDS011;2246;42.664;23.278;2023-06-14T12:48:20;8.45;;;6.00;;
4466;SDS011;2246;42.664;23.278;2023-06-14T12:50:46;6.53;;;5.40;;
4466;SDS011;2246;42.664;23.278;2023-06-14T12:53:12;11.20;;;6.05;;
4466;SDS011;2246;42.664;23.278;2023-06-14T12:55:38;10.02;;;6.13;;
4466;SDS011;2246;42.664;23.278;2023-06-14T12:58:04;11.00;;;5.85;;
4466;SDS011;2246;42.664;23.278;2023-06-14T13:00:30;9.82;;;5.93;;
4466;SDS011;2246;42.664;23.278;2023-06-14T13:02:57;8.88;;;5.90;;
4466;SDS011;2246;42.664;23.278;2023-06-14T13:05:23;7.13;;;5.60;;
4466;SDS011;2246;42.664;23.278;2023-06-14T13:07:49;6.72;;;5.63;;
4466;SDS011;2246;42.664;23.278;2023-06-14T13:10:15;10.57;;;5.90;;
4466;SDS011;2246;42.664;23.278;2023-06-14T13:12:42;7.35;;;5.47;;
4466;SDS011;2246;42.664;23.278;2023-06-14T13:15:08;13.35;;;6.10;;
4466;SDS011;2246;42.664;23.278;2023-06-14T13:17:34;10.82;;;6.13;;
4466;SDS011;2246;42.664;23.278;2023-06-14T13:20:06;8.10;;;5.60;;
4466;SDS011;2246;42.664;23.278;2023-06-14T13:22:33;9.35;;;5.72;;
4466;SDS011;2246;42.664;23.278;2023-06-14T13:24:59;11.48;;;6.50;;
4466;SDS011;2246;42.664;23.278;2023-06-14T13:27:26;9.02;;;6.03;;
4466;SDS011;2246;42.664;23.278;2023-06-14T13:29:52;6.45;;;5.57;;
4466;SDS011;2246;42.664;23.278;2023-06-14T13:32:20;6.97;;;5.13;;
4466;SDS011;2246;42.664;23.278;2023-06-14T13:37:12;7.88;;;5.32;;
4466;SDS011;2246;42.664;23.278;2023-06-14T13:39:38;7.22;;;5.75;;
4466;SDS011;2246;42.664;23.278;2023-06-14T13:42:04;9.52;;;5.85;;
4466;SDS011;2246;42.664;23.278;2023-06-14T13:44:30;9.27;;;6.55;;
4466;SDS011;2246;42.664;23.278;2023-06-14T13:46:56;13.57;;;6.85;;
4466;SDS011;2246;42.664;23.278;2023-06-14T13:49:22;8.18;;;6.07;;
4466;SDS011;2246;42.664;23.278;2023-06-14T13:51:48;9.88;;;6.07;;
4466;SDS011;2246;42.664;23.278;2023-06-14T13:54:14;8.73;;;6.28;;
4466;SDS011;2246;42.664;23.278;2023-06-14T13:56:41;10.23;;;6.88;;
4466;SDS011;2246;42.664;23.278;2023-06-14T13:59:07;16.00;;;11.23;;
4466;SDS011;2246;42.664;23.278;2023-06-14T14:01:34;14.82;;;9.52;;
4466;SDS011;2246;42.664;23.278;2023-06-14T14:04:00;14.35;;;7.10;;
4466;SDS011;2246;42.664;23.278;2023-06-14T14:06:27;13.57;;;6.90;;
4466;SDS011;2246;42.664;23.278;2023-06-14T14:08:53;11.45;;;6.35;;
4466;SDS011;2246;42.664;23.278;2023-06-14T14:11:19;10.82;;;7.20;;
4466;SDS011;2246;42.664;23.278;2023-06-14T14:13:45;9.85;;;6.82;;
4466;SDS011;2246;42.664;23.278;2023-06-14T14:16:12;9.75;;;7.28;;
4466;SDS011;2246;42.664;23.278;2023-06-14T14:18:38;10.68;;;7.18;;
4466;SDS011;2246;42.664;23.278;2023-06-14T14:21:04;9.55;;;7.45;;
4466;SDS011;2246;42.664;23.278;2023-06-14T14:23:30;8.80;;;6.72;;
4466;SDS011;2246;42.664;23.278;2023-06-14T14:25:56;13.43;;;6.40;;
4466;SDS011;2246;42.664;23.278;2023-06-14T14:28:22;9.32;;;6.28;;
4466;SDS011;2246;42.664;23.278;2023-06-14T14:30:49;7.88;;;6.40;;
4466;SDS011;2246;42.664;23.278;2023-06-14T14:33:15;9.85;;;5.95;;
4466;SDS011;2246;42.664;23.278;2023-06-14T14:35:45;10.82;;;5.88;;
4466;SDS011;2246;42.664;23.278;2023-06-14T14:38:11;8.60;;;6.32;;
4466;SDS011;2246;42.664;23.278;2023-06-14T14:40:38;8.80;;;6.40;;
4466;SDS011;2246;42.664;23.278;2023-06-14T14:43:05;10.23;;;5.22;;
4466;SDS011;2246;42.664;23.278;2023-06-14T14:45:31;12.77;;;5.93;;
4466;SDS011;2246;42.664;23.278;2023-06-14T14:47:57;10.95;;;6.05;;
4466;SDS011;2246;42.664;23.278;2023-06-14T14:50:24;11.73;;;7.55;;
4466;SDS011;2246;42.664;23.278;2023-06-14T14:52:50;8.35;;;5.18;;
4466;SDS011;2246;42.664;23.278;2023-06-14T14:55:16;6.15;;;5.22;;
4466;SDS011;2246;42.664;23.278;2023-06-14T14:57:43;10.25;;;6.72;;
4466;SDS011;2246;42.664;23.278;2023-06-14T15:00:09;11.05;;;7.65;;
4466;SDS011;2246;42.664;23.278;2023-06-14T15:02:35;9.13;;;6.47;;
4466;SDS011;2246;42.664;23.278;2023-06-14T15:05:01;9.15;;;6.45;;
4466;SDS011;2246;42.664;23.278;2023-06-14T15:07:27;9.10;;;5.95;;
4466;SDS011;2246;42.664;23.278;2023-06-14T15:09:56;9.18;;;6.53;;
4466;SDS011;2246;42.664;23.278;2023-06-14T15:12:23;12.52;;;7.13;;
4466;SDS011;2246;42.664;23.278;2023-06-14T15:14:52;11.50;;;7.20;;
4466;SDS011;2246;42.664;23.278;2023-06-14T15:17:19;12.60;;;6.95;;
4466;SDS011;2246;42.664;23.278;2023-06-14T15:19:45;12.35;;;7.50;;
4466;SDS011;2246;42.664;23.278;2023-06-14T15:22:12;12.07;;;7.60;;